sensor_id;sensor_type;location;lat;lon;timestamp;P1;durP1;ratioP1;P2;durP2;ratioP2
22080;SDS011;11207;59.512;18.050;2024-01-07T00:00:00;14.07;;;10.00;;
22080;SDS011;11207;59.512;18.050;2024-01-07T00:02:25;14.60;;;9.93;;
22080;SDS011;11207;59.512;18.050;2024-01-07T00:04:51;13.73;;;10.30;;
22080;SDS011;11207;59.512;18.050;2024-01-07T00:07:16;14.27;;;10.13;;
22080;SDS011;11207;59.512;18.050;2024-01-07T00:09:42;12.27;;;9.07;;
22080;SDS011;11207;59.512;18.050;2024-01-07T00:12:08;16.30;;;10.40;;
22080;SDS011;11207;59.512;18.050;2024-01-07T00:14:33;16.77;;;10.20;;
22080;SDS011;11207;59.512;18.050;2024-01-07T00:16:59;14.73;;;10.00;;
22080;SDS011;11207;59.512;18.050;2024-01-07T00:19:24;12.07;;;9.17;;
22080;SDS011;11207;59.512;18.050;2024-01-07T00:21:50;15.27;;;9.83;;
22080;SDS011;11207;59.512;18.050;2024-01-07T00:24:16;13.40;;;9.77;;
22080;SDS011;11207;59.512;18.050;2024-01-07T00:26:41;19.33;;;11.30;;
22080;SDS011;11207;59.512;18.050;2024-01-07T00:29:07;17.70;;;12.10;;
22080;SDS011;11207;59.512;18.050;2024-01-07T00:31:32;17.80;;;11.97;;
22080;SDS011;11207;59.512;18.050;2024-01-07T00:33:58;22.07;;;12.87;;
22080;SDS011;11207;59.512;18.050;2024-01-07T00:36:24;22.33;;;12.80;;
22080;SDS011;11207;59.512;18.050;2024-01-07T00:38:49;20.27;;;12.80;;
22080;SDS011;11207;59.512;18.050;2024-01-07T00:41:15;20.53;;;12.97;;
22080;SDS011;11207;59.512;18.050;2024-01-07T00:43:40;18.57;;;11.43;;
22080;SDS011;11207;59.512;18.050;2024-01-07T00:46:06;17.73;;;11.43;;
22080;SDS011;11207;59.512;18.050;2024-01-07T00:48:32;18.70;;;11.13;;
22080;SDS011;11207;59.512;18.050;2024-01-07T00:50:58;18.73;;;11.30;;
22080;SDS011;11207;59.512;18.050;2024-01-07T00:53:23;18.50;;;11.87;;
22080;SDS011;11207;59.512;18.050;2024-01-07T00:55:49;14.93;;;10.40;;
22080;SDS011;11207;59.512;18.050;2024-01-07T00:58:14;14.97;;;10.53;;
22080;SDS011;11207;59.512;18.050;2024-01-07T01:00:40;17.67;;;11.50;;
22080;SDS011;11207;59.512;18.050;2024-01-07T01:03:06;16.73;;;11.70;;
22080;SDS011;11207;59.512;18.050;2024-01-07T01:05:31;13.27;;;9.97;;
22080;SDS011;11207;59.512;18.050;2024-01-07T01:07:57;11.77;;;9.10;;
22080;SDS011;11207;59.512;18.050;2024-01-07T01:10:22;14.03;;;9.30;;
22080;SDS011;11207;59.512;18.050;2024-01-07T01:12:48;12.87;;;8.73;;
22080;SDS011;11207;59.512;18.050;2024-01-07T01:15:13;16.67;;;10.43;;
22080;SDS011;11207;59.512;18.050;2024-01-07T01:17:41;13.60;;;10.03;;
22080;SDS011;11207;59.512;18.050;2024-01-07T01:20:07;12.43;;;8.83;;
22080;SDS011;11207;59.512;18.050;2024-01-07T01:22:33;9.83;;;8.80;;
22080;SDS011;11207;59.512;18.050;2024-01-07T01:24:59;13.07;;;8.53;;
22080;SDS011;11207;59.512;18.050;2024-01-07T01:27:25;10.37;;;8.73;;
22080;SDS011;11207;59.512;18.050;2024-01-07T01:29:50;12.40;;;8.53;;
22080;SDS011;11207;59.512;18.050;2024-01-07T01:32:16;11.30;;;8.67;;
22080;SDS011;11207;59.512;18.050;2024-01-07T01:34:42;12.80;;;9.07;;
22080;SDS011;11207;59.512;18.050;2024-01-07T01:37:08;10.73;;;8.70;;
22080;SDS011;11207;59.512;18.050;2024-01-07T01:39:34;10.40;;;8.20;;
22080;SDS011;11207;59.512;18.050;2024-01-07T01:42:00;9.87;;;8.00;;
22080;SDS011;11207;59.512;18.050;2024-01-07T01:44:25;8.80;;;7.93;;
22080;SDS011;11207;59.512;18.050;2024-01-07T01:46:54;11.73;;;8.67;;
22080;SDS011;11207;59.512;18.050;2024-01-07T01:49:21;10.80;;;8.40;;
22080;SDS011;11207;59.512;18.050;2024-01-07T01:51:47;12.50;;;9.27;;
22080;SDS011;11207;59.512;18.050;2024-01-07T01:54:12;12.87;;;8.53;;
22080;SDS011;11207;59.512;18.050;2024-01-07T01:56:38;11.47;;;8.77;;
22080;SDS011;11207;59.512;18.050;2024-01-07T01:59:04;13.17;;;10.13;;
22080;SDS011;11207;59.512;18.050;2024-01-07T02:01:30;11.10;;;8.53;;
22080;SDS011;11207;59.512;18.050;2024-01-07T02:03:56;11.33;;;9.00;;
22080;SDS011;11207;59.512;18.050;2024-01-07T02:06:22;13.33;;;8.57;;
22080;SDS011;11207;59.512;18.050;2024-01-07T02:08:48;10.17;;;8.97;;
22080;SDS011;11207;59.512;18.050;2024-01-07T02:11:18;10.93;;;8.83;;
22080;SDS011;11207;59.512;18.050;2024-01-07T02:13:45;9.83;;;8.00;;
22080;SDS011;11207;59.512;18.050;2024-01-07T02:16:10;11.53;;;9.03;;
22080;SDS011;11207;59.512;18.050;2024-01-07T02:18:40;10.90;;;9.17;;
22080;SDS011;11207;59.512;18.050;2024-01-07T02:21:07;10.53;;;8.83;;
22080;SDS011;11207;59.512;18.050;2024-01-07T02:23:33;13.33;;;8.23;;
22080;SDS011;11207;59.512;18.050;2024-01-07T02:25:59;9.47;;;8.43;;
22080;SDS011;11207;59.512;18.050;2024-01-07T02:28:25;10.70;;;8.47;;
22080;SDS011;11207;59.512;18.050;2024-01-07T02:30:50;11.60;;;8.80;;
22080;SDS011;11207;59.512;18.050;2024-01-07T02:33:16;16.37;;;9.80;;
22080;SDS011;11207;59.512;18.050;2024-01-07T02:35:42;14.67;;;9.97;;
22080;SDS011;11207;59.512;18.050;2024-01-07T02:38:07;13.80;;;9.63;;
22080;SDS011;11207;59.512;18.050;2024-01-07T02:40:33;15.73;;;10.33;;
22080;SDS011;11207;59.512;18.050;2024-01-07T02:42:58;11.70;;;9.73;;
22080;SDS011;11207;59.512;18.050;2024-01-07T02:45:24;13.63;;;8.73;;
22080;SDS011;11207;59.512;18.050;2024-01-07T02:47:50;12.40;;;9.77;;
22080;SDS011;11207;59.512;18.050;2024-01-07T02:50:15;11.60;;;9.40;;
22080;SDS011;11207;59.512;18.050;2024-01-07T02:52:41;14.67;;;9.47;;
22080;SDS011;11207;59.512;18.050;2024-01-07T02:55:07;12.03;;;9.23;;
22080;SDS011;11207;59.512;18.050;2024-01-07T02:57:33;15.77;;;10.53;;
22080;SDS011;11207;59.512;18.050;2024-01-07T02:59:59;16.03;;;10.83;;
22080;SDS011;11207;59.512;18.050;2024-01-07T03:02:25;15.70;;;10.47;;
22080;SDS011;11207;59.512;18.050;2024-01-07T03:04:50;14.37;;;9.73;;
22080;SDS011;11207;59.512;18.050;2024-01-07T03:07:16;12.33;;;9.57;;
22080;SDS011;11207;59.512;18.050;2024-01-07T03:09:42;11.33;;;8.63;;
22080;SDS011;11207;59.512;18.050;2024-01-07T03:12:07;11.47;;;9.63;;
22080;SDS011;11207;59.512;18.050;2024-01-07T03:14:33;15.23;;;10.07;;
22080;SDS011;11207;59.512;18.050;2024-01-07T03:16:59;13.73;;;9.80;;
22080;SDS011;11207;59.512;18.050;2024-01-07T03:19:24;14.87;;;9.00;;
22080;SDS011;11207;59.512;18.050;2024-01-07T03:21:50;11.40;;;9.03;;
22080;SDS011;11207;59.512;18.050;2024-01-07T03:24:16;12.93;;;9.63;;
22080;SDS011;11207;59.512;18.050;2024-01-07T03:26:41;11.33;;;9.00;;
22080;SDS011;11207;59.512;18.050;2024-01-07T03:29:07;15.80;;;9.23;;
22080;SDS011;11207;59.512;18.050;2024-01-07T03:31:32;14.57;;;10.10;;
22080;SDS011;11207;59.512;18.050;2024-01-07T03:33:58;13.07;;;9.70;;
22080;SDS011;11207;59.512;18.050;2024-01-07T03:36:24;14.93;;;10.63;;
22080;SDS011;11207;59.512;18.050;2024-01-07T03:38:49;14.80;;;9.87;;
22080;SDS011;11207;59.512;18.050;2024-01-07T03:41:19;15.60;;;10.57;;
22080;SDS011;11207;59.512;18.050;2024-01-07T03:43:48;15.40;;;10.23;;
22080;SDS011;11207;59.512;18.050;2024-01-07T03:46:14;14.67;;;10.53;;
22080;SDS011;11207;59.512;18.050;2024-01-07T03:48:41;13.63;;;10.47;;
22080;SDS011;11207;59.512;18.050;2024-01-07T03:51:07;14.67;;;9.83;;
22080;SDS011;11207;59.512;18.050;2024-01-07T03:53:33;15.90;;;10.10;;
22080;SDS011;11207;59.512;18.050;2024-01-07T03:55:58;16.57;;;10.53;;
22080;SDS011;11207;59.512;18.050;2024-01-07T03:58:24;13.53;;;9.77;;
22080;SDS011;11207;59.512;18.050;2024-01-07T04:00:50;12.10;;;9.47;;
22080;SDS011;11207;59.512;18.050;2024-01-07T04:03:15;16.50;;;9.43;;
22080;SDS011;11207;59.512;18.050;2024-01-07T04:05:41;16.50;;;10.53;;
22080;SDS011;11207;59.512;18.050;2024-01-07T04:08:09;14.90;;;9.00;;
22080;SDS011;11207;59.512;18.050;2024-01-07T04:10:35;15.80;;;9.33;;
22080;SDS011;11207;59.512;18.050;2024-01-07T04:13:01;13.50;;;9.60;;
22080;SDS011;11207;59.512;18.050;2024-01-07T04:15:26;16.73;;;9.63;;
22080;SDS011;11207;59.512;18.050;2024-01-07T04:17:52;17.67;;;9.93;;
22080;SDS011;11207;59.512;18.050;2024-01-07T04:20:17;17.60;;;10.87;;
22080;SDS011;11207;59.512;18.050;2024-01-07T04:22:43;16.53;;;10.43;;
22080;SDS011;11207;59.512;18.050;2024-01-07T04:25:09;13.30;;;9.20;;
22080;SDS011;11207;59.512;18.050;2024-01-07T04:27:35;14.67;;;10.20;;
22080;SDS011;11207;59.512;18.050;2024-01-07T04:30:02;19.23;;;10.33;;
22080;SDS011;11207;59.512;18.050;2024-01-07T04:32:28;17.03;;;10.07;;
22080;SDS011;11207;59.512;18.050;2024-01-07T04:34:54;14.53;;;9.57;;
22080;SDS011;11207;59.512;18.050;2024-01-07T04:37:19;12.57;;;8.97;;
22080;SDS011;11207;59.512;18.050;2024-01-07T04:39:45;16.83;;;9.80;;
22080;SDS011;11207;59.512;18.050;2024-01-07T04:42:11;15.87;;;9.93;;
22080;SDS011;11207;59.512;18.050;2024-01-07T04:44:36;15.07;;;9.80;;
22080;SDS011;11207;59.512;18.050;2024-01-07T04:47:02;13.43;;;9.57;;
22080;SDS011;11207;59.512;18.050;2024-01-07T04:49:27;17.10;;;10.27;;
22080;SDS011;11207;59.512;18.050;2024-01-07T04:51:53;15.17;;;10.00;;
22080;SDS011;11207;59.512;18.050;2024-01-07T04:54:18;11.73;;;9.00;;
22080;SDS011;11207;59.512;18.050;2024-01-07T04:56:44;13.07;;;9.17;;
22080;SDS011;11207;59.512;18.050;2024-01-07T04:59:10;13.57;;;9.40;;
22080;SDS011;11207;59.512;18.050;2024-01-07T05:01:35;14.40;;;9.53;;
22080;SDS011;11207;59.512;18.050;2024-01-07T05:04:01;12.30;;;9.53;;
22080;SDS011;11207;59.512;18.050;2024-01-07T05:06:27;15.13;;;8.73;;
22080;SDS011;11207;59.512;18.050;2024-01-07T05:08:53;13.93;;;8.77;;
22080;SDS011;11207;59.512;18.050;2024-01-07T05:11:18;13.80;;;9.30;;
22080;SDS011;11207;59.512;18.050;2024-01-07T05:13:44;14.13;;;9.33;;
22080;SDS011;11207;59.512;18.050;2024-01-07T05:16:17;14.57;;;9.60;;
22080;SDS011;11207;59.512;18.050;2024-01-07T05:18:44;15.13;;;9.13;;
22080;SDS011;11207;59.512;18.050;2024-01-07T05:21:13;15.57;;;10.07;;
22080;SDS011;11207;59.512;18.050;2024-01-07T05:23:47;17.53;;;11.00;;
22080;SDS011;11207;59.512;18.050;2024-01-07T05:26:13;14.33;;;10.03;;
22080;SDS011;11207;59.512;18.050;2024-01-07T05:28:39;16.90;;;11.17;;
22080;SDS011;11207;59.512;18.050;2024-01-07T05:31:04;17.47;;;10.77;;
22080;SDS011;11207;59.512;18.050;2024-01-07T05:33:30;17.23;;;11.03;;
22080;SDS011;11207;59.512;18.050;2024-01-07T05:35:55;15.30;;;10.43;;
22080;SDS011;11207;59.512;18.050;2024-01-07T05:38:21;15.27;;;10.20;;
22080;SDS011;11207;59.512;18.050;2024-01-07T05:40:46;15.83;;;9.97;;
22080;SDS011;11207;59.512;18.050;2024-01-07T05:43:12;15.63;;;9.93;;
22080;SDS011;11207;59.512;18.050;2024-01-07T05:45:38;17.10;;;10.13;;
22080;SDS011;11207;59.512;18.050;2024-01-07T05:48:03;15.93;;;9.90;;
22080;SDS011;11207;59.512;18.050;2024-01-07T05:50:29;16.40;;;10.13;;
22080;SDS011;11207;59.512;18.050;2024-01-07T05:52:55;16.10;;;10.23;;
22080;SDS011;11207;59.512;18.050;2024-01-07T05:55:20;13.07;;;9.67;;
22080;SDS011;11207;59.512;18.050;2024-01-07T05:57:46;14.63;;;9.07;;
22080;SDS011;11207;59.512;18.050;2024-01-07T06:00:11;12.43;;;9.67;;
22080;SDS011;11207;59.512;18.050;2024-01-07T06:02:38;15.23;;;9.53;;
22080;SDS011;11207;59.512;18.050;2024-01-07T06:05:04;17.70;;;9.33;;
22080;SDS011;11207;59.512;18.050;2024-01-07T06:07:30;12.80;;;9.37;;
22080;SDS011;11207;59.512;18.050;2024-01-07T06:09:56;13.37;;;9.87;;
22080;SDS011;11207;59.512;18.050;2024-01-07T06:12:21;13.53;;;9.80;;
22080;SDS011;11207;59.512;18.050;2024-01-07T06:14:47;13.37;;;9.53;;
22080;SDS011;11207;59.512;18.050;2024-01-07T06:17:12;14.67;;;9.73;;
22080;SDS011;11207;59.512;18.050;2024-01-07T06:19:38;13.10;;;9.03;;
22080;SDS011;11207;59.512;18.050;2024-01-07T06:22:03;13.67;;;8.83;;
22080;SDS011;11207;59.512;18.050;2024-01-07T06:24:29;12.00;;;9.33;;
22080;SDS011;11207;59.512;18.050;2024-01-07T06:26:55;12.57;;;9.57;;
22080;SDS011;11207;59.512;18.050;2024-01-07T06:29:20;10.67;;;8.87;;
22080;SDS011;11207;59.512;18.050;2024-01-07T06:31:46;13.57;;;8.53;;
22080;SDS011;11207;59.512;18.050;2024-01-07T06:34:11;11.90;;;9.00;;
22080;SDS011;11207;59.512;18.050;2024-01-07T06:36:40;12.97;;;8.90;;
22080;SDS011;11207;59.512;18.050;2024-01-07T06:39:06;11.40;;;8.37;;
22080;SDS011;11207;59.512;18.050;2024-01-07T06:41:33;12.23;;;8.47;;
22080;SDS011;11207;59.512;18.050;2024-01-07T06:43:59;12.90;;;8.33;;
22080;SDS011;11207;59.512;18.050;2024-01-07T06:46:25;11.07;;;8.60;;
22080;SDS011;11207;59.512;18.050;2024-01-07T06:48:50;10.77;;;8.63;;
22080;SDS011;11207;59.512;18.050;2024-01-07T06:51:16;12.30;;;8.97;;
22080;SDS011;11207;59.512;18.050;2024-01-07T06:53:41;9.83;;;8.83;;
22080;SDS011;11207;59.512;18.050;2024-01-07T06:56:07;10.70;;;8.10;;
22080;SDS011;11207;59.512;18.050;2024-01-07T06:58:33;11.73;;;9.20;;
22080;SDS011;11207;59.512;18.050;2024-01-07T07:00:58;12.77;;;9.10;;
22080;SDS011;11207;59.512;18.050;2024-01-07T07:03:24;10.37;;;8.13;;
22080;SDS011;11207;59.512;18.050;2024-01-07T07:05:49;11.03;;;9.07;;
22080;SDS011;11207;59.512;18.050;2024-01-07T07:08:16;10.17;;;8.37;;
22080;SDS011;11207;59.512;18.050;2024-01-07T07:10:41;11.23;;;8.10;;
22080;SDS011;11207;59.512;18.050;2024-01-07T07:13:07;11.27;;;8.80;;
22080;SDS011;11207;59.512;18.050;2024-01-07T07:15:33;11.57;;;9.70;;
22080;SDS011;11207;59.512;18.050;2024-01-07T07:17:59;15.10;;;9.40;;
22080;SDS011;11207;59.512;18.050;2024-01-07T07:20:24;13.60;;;10.17;;
22080;SDS011;11207;59.512;18.050;2024-01-07T07:22:50;11.00;;;8.87;;
22080;SDS011;11207;59.512;18.050;2024-01-07T07:25:16;10.57;;;8.23;;
22080;SDS011;11207;59.512;18.050;2024-01-07T07:27:41;12.70;;;8.67;;
22080;SDS011;11207;59.512;18.050;2024-01-07T07:30:09;13.30;;;8.33;;
22080;SDS011;11207;59.512;18.050;2024-01-07T07:32:34;9.40;;;8.03;;
22080;SDS011;11207;59.512;18.050;2024-01-07T07:35:00;13.63;;;8.47;;
22080;SDS011;11207;59.512;18.050;2024-01-07T07:37:26;13.17;;;8.57;;
22080;SDS011;11207;59.512;18.050;2024-01-07T07:39:51;13.83;;;8.90;;
22080;SDS011;11207;59.512;18.050;2024-01-07T07:42:17;12.53;;;8.63;;
22080;SDS011;11207;59.512;18.050;2024-01-07T07:44:43;9.07;;;7.80;;
22080;SDS011;11207;59.512;18.050;2024-01-07T07:47:08;12.03;;;8.17;;
22080;SDS011;11207;59.512;18.050;2024-01-07T07:49:36;10.37;;;8.60;;
22080;SDS011;11207;59.512;18.050;2024-01-07T07:52:05;13.80;;;8.70;;
22080;SDS011;11207;59.512;18.050;2024-01-07T07:54:40;11.87;;;8.67;;
22080;SDS011;11207;59.512;18.050;2024-01-07T07:57:05;12.27;;;8.20;;
22080;SDS011;11207;59.512;18.050;2024-01-07T07:59:31;11.50;;;8.07;;
22080;SDS011;11207;59.512;18.050;2024-01-07T08:01:56;12.23;;;8.57;;
22080;SDS011;11207;59.512;18.050;2024-01-07T08:04:22;10.57;;;7.97;;
22080;SDS011;11207;59.512;18.050;2024-01-07T08:06:48;12.27;;;8.63;;
22080;SDS011;11207;59.512;18.050;2024-01-07T08:09:13;10.57;;;8.53;;
22080;SDS011;11207;59.512;18.050;2024-01-07T08:11:39;15.07;;;8.70;;
22080;SDS011;11207;59.512;18.050;2024-01-07T08:14:05;11.10;;;9.00;;
22080;SDS011;11207;59.512;18.050;2024-01-07T08:16:31;11.53;;;8.73;;
22080;SDS011;11207;59.512;18.050;2024-01-07T08:18:57;13.10;;;9.00;;
22080;SDS011;11207;59.512;18.050;2024-01-07T08:21:23;11.57;;;8.50;;
22080;SDS011;11207;59.512;18.050;2024-01-07T08:23:49;12.60;;;8.10;;
22080;SDS011;11207;59.512;18.050;2024-01-07T08:26:18;12.13;;;9.00;;
22080;SDS011;11207;59.512;18.050;2024-01-07T08:28:44;11.27;;;9.33;;
22080;SDS011;11207;59.512;18.050;2024-01-07T08:31:10;16.87;;;9.23;;
22080;SDS011;11207;59.512;18.050;2024-01-07T08:33:35;14.60;;;9.47;;
22080;SDS011;11207;59.512;18.050;2024-01-07T08:36:01;14.77;;;9.07;;
22080;SDS011;11207;59.512;18.050;2024-01-07T08:38:27;14.97;;;9.80;;
22080;SDS011;11207;59.512;18.050;2024-01-07T08:41:01;14.97;;;10.60;;
22080;SDS011;11207;59.512;18.050;2024-01-07T08:43:27;13.67;;;9.97;;
22080;SDS011;11207;59.512;18.050;2024-01-07T08:45:53;16.10;;;10.30;;
22080;SDS011;11207;59.512;18.050;2024-01-07T08:48:18;15.53;;;10.90;;
22080;SDS011;11207;59.512;18.050;2024-01-07T08:50:44;24.47;;;14.53;;
22080;SDS011;11207;59.512;18.050;2024-01-07T08:53:11;22.63;;;12.40;;
22080;SDS011;11207;59.512;18.050;2024-01-07T08:55:37;16.40;;;10.93;;
22080;SDS011;11207;59.512;18.050;2024-01-07T08:58:03;18.53;;;11.33;;
22080;SDS011;11207;59.512;18.050;2024-01-07T09:00:28;19.90;;;11.13;;
22080;SDS011;11207;59.512;18.050;2024-01-07T09:02:56;16.17;;;10.63;;
22080;SDS011;11207;59.512;18.050;2024-01-07T09:05:22;17.37;;;11.47;;
22080;SDS011;11207;59.512;18.050;2024-01-07T09:07:49;20.47;;;11.67;;
22080;SDS011;11207;59.512;18.050;2024-01-07T09:10:15;19.80;;;12.10;;
22080;SDS011;11207;59.512;18.050;2024-01-07T09:12:41;30.27;;;15.73;;
22080;SDS011;11207;59.512;18.050;2024-01-07T09:15:06;19.53;;;12.00;;
22080;SDS011;11207;59.512;18.050;2024-01-07T09:17:36;17.83;;;11.27;;
22080;SDS011;11207;59.512;18.050;2024-01-07T09:20:06;15.90;;;11.40;;
22080;SDS011;11207;59.512;18.050;2024-01-07T09:22:33;19.17;;;11.87;;
22080;SDS011;11207;59.512;18.050;2024-01-07T09:25:02;16.40;;;10.53;;
22080;SDS011;11207;59.512;18.050;2024-01-07T09:27:28;16.53;;;9.60;;
22080;SDS011;11207;59.512;18.050;2024-01-07T09:29:54;12.73;;;9.40;;
22080;SDS011;11207;59.512;18.050;2024-01-07T09:32:20;13.43;;;10.07;;
22080;SDS011;11207;59.512;18.050;2024-01-07T09:34:46;13.30;;;9.57;;
22080;SDS011;11207;59.512;18.050;2024-01-07T09:37:11;18.73;;;9.47;;
22080;SDS011;11207;59.512;18.050;2024-01-07T09:39:40;16.47;;;10.40;;
22080;SDS011;11207;59.512;18.050;2024-01-07T09:42:16;12.47;;;10.17;;
22080;SDS011;11207;59.512;18.050;2024-01-07T09:44:43;16.23;;;11.20;;
22080;SDS011;11207;59.512;18.050;2024-01-07T09:47:13;17.90;;;10.70;;
22080;SDS011;11207;59.512;18.050;2024-01-07T09:49:40;16.10;;;11.07;;
22080;SDS011;11207;59.512;18.050;2024-01-07T09:52:07;14.13;;;9.70;;
22080;SDS011;11207;59.512;18.050;2024-01-07T09:54:35;17.50;;;10.07;;
22080;SDS011;11207;59.512;18.050;2024-01-07T09:57:03;12.20;;;8.60;;
22080;SDS011;11207;59.512;18.050;2024-01-07T09:59:33;14.20;;;9.53;;
22080;SDS011;11207;59.512;18.050;2024-01-07T10:01:59;12.77;;;9.73;;
22080;SDS011;11207;59.512;18.050;2024-01-07T10:04:26;12.87;;;9.57;;
22080;SDS011;11207;59.512;18.050;2024-01-07T10:06:55;14.93;;;10.40;;
22080;SDS011;11207;59.512;18.050;2024-01-07T10:09:40;12.13;;;9.50;;
22080;SDS011;11207;59.512;18.050;2024-01-07T10:12:07;16.47;;;9.40;;
22080;SDS011;11207;59.512;18.050;2024-01-07T10:14:33;13.63;;;9.87;;
22080;SDS011;11207;59.512;18.050;2024-01-07T10:16:59;15.50;;;10.60;;
22080;SDS011;11207;59.512;18.050;2024-01-07T10:19:24;15.70;;;10.80;;
22080;SDS011;11207;59.512;18.050;2024-01-07T10:22:00;16.13;;;10.43;;
22080;SDS011;11207;59.512;18.050;2024-01-07T10:24:35;13.80;;;9.93;;
22080;SDS011;11207;59.512;18.050;2024-01-07T10:27:05;16.83;;;10.27;;
22080;SDS011;11207;59.512;18.050;2024-01-07T10:29:32;13.60;;;10.10;;
22080;SDS011;11207;59.512;18.050;2024-01-07T10:31:58;15.47;;;10.27;;
22080;SDS011;11207;59.512;18.050;2024-01-07T10:34:29;15.40;;;10.30;;
22080;SDS011;11207;59.512;18.050;2024-01-07T10:36:56;17.47;;;10.63;;
22080;SDS011;11207;59.512;18.050;2024-01-07T10:39:25;15.80;;;10.50;;
22080;SDS011;11207;59.512;18.050;2024-01-07T10:41:51;17.53;;;11.10;;
22080;SDS011;11207;59.512;18.050;2024-01-07T10:44:22;16.30;;;11.40;;
22080;SDS011;11207;59.512;18.050;2024-01-07T10:46:54;19.10;;;12.23;;
22080;SDS011;11207;59.512;18.050;2024-01-07T10:49:23;20.77;;;12.17;;
22080;SDS011;11207;59.512;18.050;2024-01-07T10:51:56;14.23;;;10.87;;
22080;SDS011;11207;59.512;18.050;2024-01-07T10:54:28;18.40;;;11.10;;
22080;SDS011;11207;59.512;18.050;2024-01-07T10:56:55;17.27;;;10.47;;
22080;SDS011;11207;59.512;18.050;2024-01-07T10:59:23;16.40;;;10.90;;
22080;SDS011;11207;59.512;18.050;2024-01-07T11:01:50;28.37;;;16.23;;
22080;SDS011;11207;59.512;18.050;2024-01-07T11:06:55;19.37;;;12.97;;
22080;SDS011;11207;59.512;18.050;2024-01-07T11:09:39;19.20;;;12.23;;
22080;SDS011;11207;59.512;18.050;2024-01-07T11:12:20;20.23;;;14.23;;
22080;SDS011;11207;59.512;18.050;2024-01-07T11:14:46;21.97;;;11.93;;
22080;SDS011;11207;59.512;18.050;2024-01-07T11:20:03;18.60;;;11.03;;
22080;SDS011;11207;59.512;18.050;2024-01-07T11:22:30;20.00;;;11.77;;
22080;SDS011;11207;59.512;18.050;2024-01-07T11:24:56;20.57;;;11.63;;
22080;SDS011;11207;59.512;18.050;2024-01-07T11:27:23;15.70;;;10.67;;
22080;SDS011;11207;59.512;18.050;2024-01-07T11:29:56;17.07;;;11.33;;
22080;SDS011;11207;59.512;18.050;2024-01-07T11:32:33;14.67;;;10.37;;
22080;SDS011;11207;59.512;18.050;2024-01-07T11:34:59;14.20;;;9.87;;
22080;SDS011;11207;59.512;18.050;2024-01-07T11:37:25;16.27;;;10.23;;
22080;SDS011;11207;59.512;18.050;2024-01-07T11:39:55;17.03;;;10.43;;
22080;SDS011;11207;59.512;18.050;2024-01-07T11:42:21;13.10;;;10.13;;
22080;SDS011;11207;59.512;18.050;2024-01-07T11:44:52;13.83;;;9.77;;
22080;SDS011;11207;59.512;18.050;2024-01-07T11:47:19;14.87;;;9.87;;
22080;SDS011;11207;59.512;18.050;2024-01-07T11:49:45;13.63;;;9.50;;
22080;SDS011;11207;59.512;18.050;2024-01-07T11:52:11;11.23;;;9.57;;
22080;SDS011;11207;59.512;18.050;2024-01-07T11:54:38;13.07;;;9.43;;
22080;SDS011;11207;59.512;18.050;2024-01-07T11:57:05;12.90;;;9.57;;
22080;SDS011;11207;59.512;18.050;2024-01-07T11:59:31;14.07;;;8.90;;
22080;SDS011;11207;59.512;18.050;2024-01-07T12:01:57;11.23;;;9.00;;
22080;SDS011;11207;59.512;18.050;2024-01-07T12:04:24;11.70;;;8.77;;
22080;SDS011;11207;59.512;18.050;2024-01-07T12:06:49;13.40;;;9.23;;
22080;SDS011;11207;59.512;18.050;2024-01-07T12:09:15;15.83;;;9.47;;
22080;SDS011;11207;59.512;18.050;2024-01-07T12:11:41;14.63;;;9.63;;
22080;SDS011;11207;59.512;18.050;2024-01-07T12:14:08;16.40;;;9.43;;
22080;SDS011;11207;59.512;18.050;2024-01-07T12:16:35;13.27;;;9.47;;
22080;SDS011;11207;59.512;18.050;2024-01-07T12:19:01;13.53;;;9.90;;
22080;SDS011;11207;59.512;18.050;2024-01-07T12:21:27;15.93;;;9.67;;
22080;SDS011;11207;59.512;18.050;2024-01-07T12:23:55;12.60;;;9.57;;
22080;SDS011;11207;59.512;18.050;2024-01-07T12:26:25;14.67;;;9.17;;
22080;SDS011;11207;59.512;18.050;2024-01-07T12:28:54;14.00;;;9.80;;
22080;SDS011;11207;59.512;18.050;2024-01-07T12:31:25;13.77;;;9.43;;
22080;SDS011;11207;59.512;18.050;2024-01-07T12:33:51;11.53;;;8.93;;
22080;SDS011;11207;59.512;18.050;2024-01-07T12:36:21;11.50;;;8.73;;
22080;SDS011;11207;59.512;18.050;2024-01-07T12:38:47;12.10;;;8.67;;
22080;SDS011;11207;59.512;18.050;2024-01-07T12:41:14;10.60;;;8.90;;
22080;SDS011;11207;59.512;18.050;2024-01-07T12:43:40;11.93;;;8.73;;
22080;SDS011;11207;59.512;18.050;2024-01-07T12:46:05;14.00;;;8.67;;
22080;SDS011;11207;59.512;18.050;2024-01-07T12:48:32;11.93;;;8.97;;
22080;SDS011;11207;59.512;18.050;2024-01-07T12:50:58;11.70;;;8.50;;
22080;SDS011;11207;59.512;18.050;2024-01-07T12:53:24;12.53;;;8.80;;
22080;SDS011;11207;59.512;18.050;2024-01-07T12:55:50;11.10;;;8.67;;
22080;SDS011;11207;59.512;18.050;2024-01-07T12:58:16;12.73;;;8.97;;
22080;SDS011;11207;59.512;18.050;2024-01-07T13:00:42;8.50;;;7.63;;
22080;SDS011;11207;59.512;18.050;2024-01-07T13:03:08;10.87;;;8.30;;
22080;SDS011;11207;59.512;18.050;2024-01-07T13:05:39;14.33;;;9.03;;
22080;SDS011;11207;59.512;18.050;2024-01-07T13:08:06;14.00;;;9.07;;
22080;SDS011;11207;59.512;18.050;2024-01-07T13:10:32;13.70;;;9.53;;
22080;SDS011;11207;59.512;18.050;2024-01-07T13:12:59;13.30;;;9.07;;
22080;SDS011;11207;59.512;18.050;2024-01-07T13:15:25;12.90;;;9.37;;
22080;SDS011;11207;59.512;18.050;2024-01-07T13:17:51;20.03;;;11.00;;
22080;SDS011;11207;59.512;18.050;2024-01-07T13:20:16;17.70;;;10.33;;
22080;SDS011;11207;59.512;18.050;2024-01-07T13:22:45;14.70;;;8.83;;
22080;SDS011;11207;59.512;18.050;2024-01-07T13:25:13;18.37;;;10.27;;
22080;SDS011;11207;59.512;18.050;2024-01-07T13:27:39;18.00;;;10.33;;
22080;SDS011;11207;59.512;18.050;2024-01-07T13:30:06;15.67;;;8.70;;
22080;SDS011;11207;59.512;18.050;2024-01-07T13:32:32;20.53;;;9.93;;
22080;SDS011;11207;59.512;18.050;2024-01-07T13:35:01;18.00;;;9.70;;
22080;SDS011;11207;59.512;18.050;2024-01-07T13:37:28;16.20;;;10.80;;
22080;SDS011;11207;59.512;18.050;2024-01-07T13:39:53;16.33;;;10.70;;
22080;SDS011;11207;59.512;18.050;2024-01-07T13:42:19;12.83;;;9.43;;
22080;SDS011;11207;59.512;18.050;2024-01-07T13:44:44;23.80;;;10.57;;
22080;SDS011;11207;59.512;18.050;2024-01-07T13:47:12;20.73;;;11.73;;
22080;SDS011;11207;59.512;18.050;2024-01-07T13:49:39;27.03;;;12.40;;
22080;SDS011;11207;59.512;18.050;2024-01-07T13:52:10;26.27;;;13.27;;
22080;SDS011;11207;59.512;18.050;2024-01-07T13:54:39;22.00;;;12.03;;
22080;SDS011;11207;59.512;18.050;2024-01-07T13:57:04;32.83;;;13.67;;
22080;SDS011;11207;59.512;18.050;2024-01-07T13:59:30;22.10;;;12.53;;
22080;SDS011;11207;59.512;18.050;2024-01-07T14:01:56;18.97;;;11.20;;
22080;SDS011;11207;59.512;18.050;2024-01-07T14:04:24;24.37;;;11.53;;
22080;SDS011;11207;59.512;18.050;2024-01-07T14:06:56;22.70;;;12.27;;
22080;SDS011;11207;59.512;18.050;2024-01-07T14:09:22;24.20;;;12.37;;
22080;SDS011;11207;59.512;18.050;2024-01-07T14:11:48;20.10;;;11.93;;
22080;SDS011;11207;59.512;18.050;2024-01-07T14:14:14;22.23;;;12.20;;
22080;SDS011;11207;59.512;18.050;2024-01-07T14:16:39;25.80;;;11.97;;